Gunnison, CO

00:02 MDT le 05 juillet 2015 (GMT -0600)
Gunnison County | | Change Station
CLOSE
Current Station
Aéroport
Location: Gunnison,
Altitude: 7674 ft
Stations météo à proximité

Alt. 7674 ft 38.53 °N, 106.93 °W | Updated 7 minutes ago

Ciel dégagé
Ciel dégagé
63 ° F
Paraît 63 ° F
N
5
Vent Variable Vent de Nord

Aujourd'hui
Haut(e) -- | Bas -- ° F
--% Risque de précip.
Hier
Haut(e) -- | Bas -- ° F
Precip. -- pouce
5:49 AM 8:35 PM
Lune gibbeuse décroissante, 87% visible
Pression 30.31 pouce
Visibilité 10.0 Miles terrestres
Nuages Ciel dégagé
Point de rosée 45 ° F
Humidité 52%
Précipitations 0.03 pouce
Profondeur de la couche neigeuse Non disponible.
UV 0 sur 12
Pollen 3.70 sur 12
Qualité de l'air Non disponible.
Flu Activity Non disponible.
METAR KGUC 050555Z 36004KT 10SM CLR 17/07 A3031 RMK AO1 10230 20170 52014

More Conditions Fewer Conditions

Pression 30.31 pouce
Visibilité 10.0 Miles terrestres
Nuages Ciel dégagé
Point de rosée 45 ° F
Humidité 52%
Précipitations 0.03 pouce
Profondeur de la couche neigeuse Non disponible.
UV 0 sur 12
Pollen 3.70 sur 12
Qualité de l'air Non disponible.
Flu Activity Non disponible.
METAR KGUC 050555Z 36004KT 10SM CLR 17/07 A3031 RMK AO1 10230 20170 52014

More Conditions Fewer Conditions

10-Day Weather Forecast

×

Almanac

Astronomie

Jul. 05, 2015 Lever Coucher
Temps réel
Crépuscule civil
Crépuscule nautique
Crépuscule astronomique
Lune
Durée de lumière visible
Longueur du jour
Tomorrow will be .
, % of the Moon is Illuminated

Extrêmes aujourd'hui

State Highs State Lows

Community

WunderPhotos

Upload Photos

1,835,204 Photos téléchargées !

WunderBlogs® & News

Nearby

Qualité de l'air

  Qualité de l'air Indice de la qualité de l'air Polluant
Not available.

Épaisseur de neige

Station Depth Altitude

Activité sismique

Ville Distance Mag. Time & Date
Minimum magnitude displayed is 2.5.

Températures des eaux côtières

Lieu Température

Stations

Stations météo à proximité

Emplacement de la station Température Refroidissement éolien Point de rosée Humidité Vent Precip. Alt. Mise à jour Type